• Join FlightAware (Why Join?)
  • Login
  • US Flag 
02:12AM EDT


 

Airport Tracker/Info


-or-


 

Live Flight TrackerFlight Track Log ✈ N960DL ✈ 23-Jun-2013 ✈ KATL - KRSW

Flight Track Log - Related Links

Times and Time Zones

All times are in EDT time to prevent confusion due to time zone crossing. See the N960DL flight status page for this flight to view local times or setup timezone preferences in your user account.

Time Position Orientation Groundspeed Altitude Reporting Facility
EDT Latitude Longitude Course Direction KTS MPH feet Rate Location/Type
03:55PM 33.6333 -84.3833 199° South 176 203 2,100  Level Atlanta TRACON
03:56PM 33.6167 -84.3000 103° East 264 304 4,000 2,340 Climbing Atlanta TRACON
03:57PM 33.5500 -84.2833 168° South 274 315 7,100 2,520 Climbing Atlanta TRACON
03:58PM 33.3778 -84.2878 194° South  Level FlightAware Approximate
03:59PM 33.2617 -84.3217 194° South  Level FlightAware Approximate
03:59PM 33.4267 -84.3100 190° South 269 310 10,700  Level Atlanta Center
04:00PM 33.1456 -84.3555 194° South  Level FlightAware Approximate
04:00PM 33.3325 -84.3322 191° South 315 362 11,900  Level Atlanta Center
04:01PM 33.0292 -84.3850 199° South  Level FlightAware Approximate
04:01PM 33.2281 -84.3592 192° South 375 432 14,100  Level Atlanta Center
04:02PM 33.1217 -84.3961 196° South 399 459 16,400 1,980 Climbing Atlanta Center
04:03PM 33.0044 -84.4475 200° South 405 466 18,100 1,800 Climbing Atlanta Center
04:04PM 32.8917 -84.5014 202° Southwest 421 484 20,000 1,620 Climbing Atlanta Center
04:05PM 32.7747 -84.5503 199° South 437 503 21,400 2,280 Climbing Atlanta Center
04:06PM 32.6617 -84.6014 201° Southwest 442 509 24,600 2,400 Climbing Atlanta Center
04:07PM 32.5528 -84.6475 200° South 432 497 26,200 1,260 Climbing Atlanta Center
04:08PM 32.4442 -84.6886 198° South 425 489 27,200 900 Climbing Atlanta Center
04:09PM 32.3353 -84.7344 200° South 419 482 28,000 840 Climbing Atlanta Center
04:10PM 32.2183 -84.7656 193° South 427 491 28,900 900 Climbing Atlanta Center
04:11PM 32.0953 -84.7475 173° South 432 497 29,800 780 Climbing Atlanta Center
04:12PM 31.9744 -84.7194 169° South 438 504 30,500 480 Climbing Atlanta Center
04:14PM 31.7367 -84.6586 168° South 452 520 31,200 480 Climbing Jacksonville Center
04:15PM 31.6117 -84.6294 169° South 452 520 31,900 900 Climbing Jacksonville Center
04:16PM 31.4889 -84.6006 169° South 452 520 33,000 540 Climbing Jacksonville Center
04:17PM 31.3683 -84.5689 167° South 447 514 33,000  Level Jacksonville Center
04:18PM 31.2475 -84.5403 169° South 447 514 33,000  Level Jacksonville Center
04:19PM 31.1247 -84.5114 169° South 447 514 33,000  Level Jacksonville Center
04:20PM 31.0086 -84.4536 157° South 447 514 33,000  Level Jacksonville Center
04:21PM 30.8944 -84.3911 155° Southeast 452 520 33,000  Level Jacksonville Center
04:22PM 30.7783 -84.3289 155° Southeast 452 520 33,000  Level Jacksonville Center
04:23PM 30.6642 -84.2644 154° Southeast 458 527 33,000  Level Jacksonville Center
04:24PM 30.5728 -84.2219 158° South 453 521 33,000  Level Jacksonville Center
04:25PM 30.4503 -84.1506 153° Southeast 448 516 33,000  Level Jacksonville Center
04:26PM 30.3381 -84.0864 154° Southeast 448 516 33,000  Level Jacksonville Center
04:27PM 30.2261 -84.0250 155° Southeast 448 516 33,000  Level Jacksonville Center
04:28PM 30.1117 -83.9611 154° Southeast 448 516 33,000  Level Jacksonville Center
04:29PM 29.9975 -83.8997 155° Southeast 448 516 33,000  Level Jacksonville Center
04:30PM 29.8850 -83.8389 155° Southeast 443 510 33,000  Level Jacksonville Center
04:31PM 29.7603 -83.7683 154° Southeast 443 510 33,000  Level Jacksonville Center
04:32PM 29.6458 -83.7050 154° Southeast 443 510 33,000  Level Jacksonville Center
04:33PM 29.5336 -83.6469 156° South 448 516 33,000  Level Jacksonville Center
04:34PM 29.4211 -83.5839 154° Southeast 448 516 33,000  Level Jacksonville Center
04:35PM 29.3089 -83.5214 154° Southeast 448 516 33,000  Level Jacksonville Center
04:36PM 29.1942 -83.4633 156° South 443 510 33,000  Level Jacksonville Center
04:37PM 29.0797 -83.4033 155° Southeast 443 510 33,000  Level Jacksonville Center
04:38PM 28.9694 -83.3411 154° Southeast 443 510 33,000  Level Jacksonville Center
04:39PM 28.8506 -83.2931 161° South 438 504 33,000  Level Jacksonville Center
04:40PM 28.7317 -83.2572 165° South 438 504 33,000 -1,620 Level Jacksonville Center
04:42PM 28.4758 -83.1939 168° South 448 516 28,200 -1,980 Descending Miami Center
04:43PM 28.3561 -83.1611 166° South 448 516 27,000 -600 Descending Miami Center
04:44PM 28.2325 -83.1261 166° South 448 516 27,000  Level Miami Center
04:45PM 28.1069 -83.0931 167° South 459 528 27,000  Level Miami Center
04:46PM 27.9811 -83.0603 167° South 465 535 27,000  Level Miami Center
04:47PM 27.8553 -83.0278 167° South 465 535 27,000  Level Miami Center
04:48PM 27.7314 -82.9953 167° South 465 535 27,000 -60 Level Miami Center
04:49PM 27.6036 -82.9603 166° South 470 541 26,900  Descending Miami Center
04:50PM 27.4778 -82.9278 167° South 475 547 27,000 -120 Climbing Miami Center
04:51PM 27.3497 -82.8953 167° South 475 547 26,700 -1,500 Descending Miami Center
04:52PM 27.2281 -82.8633 167° South 465 535 24,000 -2,700 Descending Miami Center
04:53PM 27.1156 -82.8086 157° South 446 513 21,300 -2,580 Descending Miami Center
04:54PM 27.0208 -82.7269 142° Southeast 431 496 18,900 -2,340 Descending Miami Center
04:55PM 26.9344 -82.6411 138° Southeast 426 490 16,700 -2,280 Descending Miami Center
04:56PM 26.8672 -82.5469 129° Southeast 404 465 14,400 -2,340 Descending Miami Center
04:57PM 26.8256 -82.4403 114° Southeast 385 443 12,100 -1,680 Descending Miami Center
04:58PM 26.7939 -82.3411 110° East 361 415 11,100 -1,020 Descending Miami Center
04:59PM 26.7508 -82.2600 121° Southeast 328 377 10,100 -1,320 Descending Miami Center
05:00PM 26.6881 -82.2083 144° Southeast 289 333 8,500 -1,620 Descending Miami Center
05:01PM 26.6253 -82.1589 145° Southeast 284 327 6,900 -1,320 Descending Miami Center
05:02PM 26.5664 -82.1100 143° Southeast 279 321 5,900 -720 Descending Miami Center
05:03PM 26.5058 -82.0561 141° Southeast 279 321 5,500 -600 Descending Miami Center
05:04PM 26.4450 -82.0069 144° Southeast 279 321 4,800 -660 Descending Miami Center
05:05PM 26.4011 -81.9425 127° Southeast 273 314 4,200 -600 Descending Miami Center
05:07PM 26.5063 -81.7966 50° Northeast  Level Estimated
05:14PM 26.5333 -81.7500 50° Northeast  Level FlightAware Approximate
05:15PM 26.5362 -81.7552 50° Northeast  Level Estimated
05:16PM 26.5333 -81.7500 50° Northeast  Level FlightAware Approximate
05:17PM 26.5362 -81.7552 50° Northeast  Level Estimated
05:18PM 26.5333 -81.7500 50° Northeast  Level FlightAware Approximate
05:19PM 26.5362 -81.7552 50° Northeast  Level Estimated
05:20PM 26.5333 -81.7500 50° Northeast  Level FlightAware Approximate